sensor_id;sensor_type;location;lat;lon;timestamp;P1;durP1;ratioP1;P2;durP2;ratioP2
12088;SDS011;6107;49.078;8.578;2024-03-22T00:01:45;23.17;;;6.25;;
12088;SDS011;6107;49.078;8.578;2024-03-22T00:04:11;11.02;;;5.93;;
12088;SDS011;6107;49.078;8.578;2024-03-22T00:06:41;13.30;;;5.22;;
12088;SDS011;6107;49.078;8.578;2024-03-22T00:09:07;10.02;;;4.90;;
12088;SDS011;6107;49.078;8.578;2024-03-22T00:11:33;12.07;;;5.82;;
12088;SDS011;6107;49.078;8.578;2024-03-22T00:13:59;12.45;;;6.05;;
12088;SDS011;6107;49.078;8.578;2024-03-22T00:16:24;13.23;;;5.85;;
12088;SDS011;6107;49.078;8.578;2024-03-22T00:18:50;14.38;;;5.65;;
12088;SDS011;6107;49.078;8.578;2024-03-22T00:21:16;18.42;;;6.82;;
12088;SDS011;6107;49.078;8.578;2024-03-22T00:23:42;12.23;;;6.32;;
12088;SDS011;6107;49.078;8.578;2024-03-22T00:26:08;17.30;;;6.43;;
12088;SDS011;6107;49.078;8.578;2024-03-22T00:28:34;11.45;;;6.05;;
12088;SDS011;6107;49.078;8.578;2024-03-22T00:31:00;14.30;;;6.63;;
12088;SDS011;6107;49.078;8.578;2024-03-22T00:33:26;18.92;;;6.22;;
12088;SDS011;6107;49.078;8.578;2024-03-22T00:35:52;13.77;;;6.45;;
12088;SDS011;6107;49.078;8.578;2024-03-22T00:38:17;15.43;;;7.20;;
12088;SDS011;6107;49.078;8.578;2024-03-22T00:40:43;17.77;;;7.32;;
12088;SDS011;6107;49.078;8.578;2024-03-22T00:43:09;16.73;;;7.93;;
12088;SDS011;6107;49.078;8.578;2024-03-22T00:45:34;17.95;;;6.30;;
12088;SDS011;6107;49.078;8.578;2024-03-22T00:48:00;13.77;;;6.70;;
12088;SDS011;6107;49.078;8.578;2024-03-22T00:50:26;11.63;;;5.70;;
12088;SDS011;6107;49.078;8.578;2024-03-22T00:52:52;16.90;;;7.18;;
12088;SDS011;6107;49.078;8.578;2024-03-22T00:55:20;12.55;;;6.43;;
12088;SDS011;6107;49.078;8.578;2024-03-22T00:57:46;14.52;;;7.63;;
12088;SDS011;6107;49.078;8.578;2024-03-22T01:00:12;20.45;;;6.50;;
12088;SDS011;6107;49.078;8.578;2024-03-22T01:02:38;12.98;;;6.72;;
12088;SDS011;6107;49.078;8.578;2024-03-22T01:05:04;17.88;;;6.00;;
12088;SDS011;6107;49.078;8.578;2024-03-22T01:07:29;14.30;;;6.43;;
12088;SDS011;6107;49.078;8.578;2024-03-22T01:09:55;16.23;;;7.07;;
12088;SDS011;6107;49.078;8.578;2024-03-22T01:12:21;14.40;;;6.80;;
12088;SDS011;6107;49.078;8.578;2024-03-22T01:14:46;14.57;;;7.47;;
12088;SDS011;6107;49.078;8.578;2024-03-22T01:17:12;18.42;;;7.90;;
12088;SDS011;6107;49.078;8.578;2024-03-22T01:19:37;15.45;;;6.95;;
12088;SDS011;6107;49.078;8.578;2024-03-22T01:22:03;15.10;;;7.93;;
12088;SDS011;6107;49.078;8.578;2024-03-22T01:24:29;22.70;;;6.88;;
12088;SDS011;6107;49.078;8.578;2024-03-22T01:26:54;12.57;;;6.75;;
12088;SDS011;6107;49.078;8.578;2024-03-22T01:29:20;18.17;;;7.95;;
12088;SDS011;6107;49.078;8.578;2024-03-22T01:31:46;17.85;;;8.93;;
12088;SDS011;6107;49.078;8.578;2024-03-22T01:34:12;18.98;;;9.63;;
12088;SDS011;6107;49.078;8.578;2024-03-22T01:36:38;14.63;;;8.40;;
12088;SDS011;6107;49.078;8.578;2024-03-22T01:39:04;14.90;;;7.68;;
12088;SDS011;6107;49.078;8.578;2024-03-22T01:41:29;19.30;;;7.72;;
12088;SDS011;6107;49.078;8.578;2024-03-22T01:43:55;13.40;;;8.18;;
12088;SDS011;6107;49.078;8.578;2024-03-22T01:46:21;12.77;;;7.03;;
12088;SDS011;6107;49.078;8.578;2024-03-22T01:48:47;12.43;;;7.00;;
12088;SDS011;6107;49.078;8.578;2024-03-22T01:51:12;17.73;;;7.07;;
12088;SDS011;6107;49.078;8.578;2024-03-22T01:53:38;17.27;;;7.10;;
12088;SDS011;6107;49.078;8.578;2024-03-22T01:56:04;15.73;;;7.20;;
12088;SDS011;6107;49.078;8.578;2024-03-22T01:58:32;20.25;;;8.57;;
12088;SDS011;6107;49.078;8.578;2024-03-22T02:00:58;22.00;;;9.45;;
12088;SDS011;6107;49.078;8.578;2024-03-22T02:03:23;17.35;;;8.20;;
12088;SDS011;6107;49.078;8.578;2024-03-22T02:05:49;19.42;;;7.97;;
12088;SDS011;6107;49.078;8.578;2024-03-22T02:08:15;13.50;;;8.15;;
12088;SDS011;6107;49.078;8.578;2024-03-22T02:10:40;13.73;;;7.30;;
12088;SDS011;6107;49.078;8.578;2024-03-22T02:13:06;16.52;;;7.82;;
12088;SDS011;6107;49.078;8.578;2024-03-22T02:15:32;16.90;;;7.70;;
12088;SDS011;6107;49.078;8.578;2024-03-22T02:17:58;13.63;;;8.15;;
12088;SDS011;6107;49.078;8.578;2024-03-22T02:20:23;14.98;;;6.93;;
12088;SDS011;6107;49.078;8.578;2024-03-22T02:22:49;16.20;;;7.82;;
12088;SDS011;6107;49.078;8.578;2024-03-22T02:25:14;15.50;;;7.20;;
12088;SDS011;6107;49.078;8.578;2024-03-22T02:27:40;14.52;;;7.43;;
12088;SDS011;6107;49.078;8.578;2024-03-22T02:30:06;14.65;;;8.15;;
12088;SDS011;6107;49.078;8.578;2024-03-22T02:32:32;14.05;;;7.38;;
12088;SDS011;6107;49.078;8.578;2024-03-22T02:34:58;15.73;;;8.77;;
12088;SDS011;6107;49.078;8.578;2024-03-22T02:37:24;15.68;;;8.13;;
12088;SDS011;6107;49.078;8.578;2024-03-22T02:39:49;17.85;;;9.38;;
12088;SDS011;6107;49.078;8.578;2024-03-22T02:42:15;16.63;;;8.40;;
12088;SDS011;6107;49.078;8.578;2024-03-22T02:44:41;13.10;;;7.32;;
12088;SDS011;6107;49.078;8.578;2024-03-22T02:47:09;14.38;;;7.82;;
12088;SDS011;6107;49.078;8.578;2024-03-22T02:49:35;15.05;;;7.70;;
12088;SDS011;6107;49.078;8.578;2024-03-22T02:52:01;13.52;;;8.25;;
12088;SDS011;6107;49.078;8.578;2024-03-22T02:54:27;22.30;;;8.52;;
12088;SDS011;6107;49.078;8.578;2024-03-22T02:56:52;12.90;;;7.60;;
12088;SDS011;6107;49.078;8.578;2024-03-22T02:59:18;17.48;;;8.27;;
12088;SDS011;6107;49.078;8.578;2024-03-22T03:01:43;15.18;;;7.25;;
12088;SDS011;6107;49.078;8.578;2024-03-22T03:04:09;11.35;;;7.30;;
12088;SDS011;6107;49.078;8.578;2024-03-22T03:06:35;13.85;;;7.70;;
12088;SDS011;6107;49.078;8.578;2024-03-22T03:09:00;15.18;;;7.70;;
12088;SDS011;6107;49.078;8.578;2024-03-22T03:11:26;18.33;;;8.30;;
12088;SDS011;6107;49.078;8.578;2024-03-22T03:13:51;13.18;;;8.10;;
12088;SDS011;6107;49.078;8.578;2024-03-22T03:16:17;14.45;;;8.77;;
12088;SDS011;6107;49.078;8.578;2024-03-22T03:18:43;14.75;;;7.85;;
12088;SDS011;6107;49.078;8.578;2024-03-22T03:21:08;14.93;;;8.23;;
12088;SDS011;6107;49.078;8.578;2024-03-22T03:23:34;15.05;;;7.80;;
12088;SDS011;6107;49.078;8.578;2024-03-22T03:26:00;15.10;;;7.13;;
12088;SDS011;6107;49.078;8.578;2024-03-22T03:28:25;15.43;;;7.25;;
12088;SDS011;6107;49.078;8.578;2024-03-22T03:30:52;15.27;;;7.53;;
12088;SDS011;6107;49.078;8.578;2024-03-22T03:33:17;15.35;;;7.95;;
12088;SDS011;6107;49.078;8.578;2024-03-22T03:35:46;17.13;;;7.68;;
12088;SDS011;6107;49.078;8.578;2024-03-22T03:38:12;13.07;;;7.72;;
12088;SDS011;6107;49.078;8.578;2024-03-22T03:40:38;19.60;;;7.57;;
12088;SDS011;6107;49.078;8.578;2024-03-22T03:43:03;12.40;;;7.30;;
12088;SDS011;6107;49.078;8.578;2024-03-22T03:45:29;17.17;;;7.60;;
12088;SDS011;6107;49.078;8.578;2024-03-22T03:47:54;19.05;;;8.60;;
12088;SDS011;6107;49.078;8.578;2024-03-22T03:50:20;17.50;;;8.65;;
12088;SDS011;6107;49.078;8.578;2024-03-22T03:52:45;12.48;;;7.60;;
12088;SDS011;6107;49.078;8.578;2024-03-22T03:55:11;11.38;;;6.95;;
12088;SDS011;6107;49.078;8.578;2024-03-22T03:57:37;15.30;;;7.00;;
12088;SDS011;6107;49.078;8.578;2024-03-22T04:00:02;13.15;;;7.10;;
12088;SDS011;6107;49.078;8.578;2024-03-22T04:02:29;11.93;;;6.82;;
12088;SDS011;6107;49.078;8.578;2024-03-22T04:04:54;15.93;;;7.30;;
12088;SDS011;6107;49.078;8.578;2024-03-22T04:07:20;13.07;;;6.90;;
12088;SDS011;6107;49.078;8.578;2024-03-22T04:09:46;10.88;;;6.93;;
12088;SDS011;6107;49.078;8.578;2024-03-22T04:12:12;15.30;;;7.20;;
12088;SDS011;6107;49.078;8.578;2024-03-22T04:14:38;10.38;;;6.80;;
12088;SDS011;6107;49.078;8.578;2024-03-22T04:17:04;12.18;;;7.28;;
12088;SDS011;6107;49.078;8.578;2024-03-22T04:19:29;11.45;;;6.60;;
12088;SDS011;6107;49.078;8.578;2024-03-22T04:21:55;13.07;;;6.35;;
12088;SDS011;6107;49.078;8.578;2024-03-22T04:24:20;13.63;;;7.10;;
12088;SDS011;6107;49.078;8.578;2024-03-22T04:26:46;14.73;;;7.32;;
12088;SDS011;6107;49.078;8.578;2024-03-22T04:29:12;15.15;;;7.18;;
12088;SDS011;6107;49.078;8.578;2024-03-22T04:31:37;12.18;;;6.70;;
12088;SDS011;6107;49.078;8.578;2024-03-22T04:34:03;13.15;;;6.68;;
12088;SDS011;6107;49.078;8.578;2024-03-22T04:36:30;12.40;;;6.82;;
12088;SDS011;6107;49.078;8.578;2024-03-22T04:38:56;8.48;;;5.53;;
12088;SDS011;6107;49.078;8.578;2024-03-22T04:41:22;12.63;;;6.82;;
12088;SDS011;6107;49.078;8.578;2024-03-22T04:43:47;12.10;;;6.40;;
12088;SDS011;6107;49.078;8.578;2024-03-22T04:46:13;10.02;;;6.38;;
12088;SDS011;6107;49.078;8.578;2024-03-22T04:48:39;12.40;;;6.82;;
12088;SDS011;6107;49.078;8.578;2024-03-22T04:51:04;15.93;;;6.20;;
12088;SDS011;6107;49.078;8.578;2024-03-22T04:53:30;11.80;;;6.03;;
12088;SDS011;6107;49.078;8.578;2024-03-22T04:55:58;12.93;;;6.82;;
12088;SDS011;6107;49.078;8.578;2024-03-22T04:58:23;16.52;;;7.25;;
12088;SDS011;6107;49.078;8.578;2024-03-22T05:00:49;12.75;;;7.35;;
12088;SDS011;6107;49.078;8.578;2024-03-22T05:03:20;13.60;;;6.30;;
12088;SDS011;6107;49.078;8.578;2024-03-22T05:05:46;14.93;;;6.88;;
12088;SDS011;6107;49.078;8.578;2024-03-22T05:08:12;14.68;;;6.65;;
12088;SDS011;6107;49.078;8.578;2024-03-22T05:10:37;12.52;;;6.93;;
12088;SDS011;6107;49.078;8.578;2024-03-22T05:13:03;12.25;;;7.28;;
12088;SDS011;6107;49.078;8.578;2024-03-22T05:15:28;10.50;;;6.20;;
12088;SDS011;6107;49.078;8.578;2024-03-22T05:17:56;18.55;;;6.95;;
12088;SDS011;6107;49.078;8.578;2024-03-22T05:20:23;15.40;;;5.95;;
12088;SDS011;6107;49.078;8.578;2024-03-22T05:22:48;12.20;;;6.25;;
12088;SDS011;6107;49.078;8.578;2024-03-22T05:25:14;20.25;;;7.78;;
12088;SDS011;6107;49.078;8.578;2024-03-22T05:27:40;13.20;;;7.32;;
12088;SDS011;6107;49.078;8.578;2024-03-22T05:30:07;12.30;;;7.40;;
12088;SDS011;6107;49.078;8.578;2024-03-22T05:32:34;17.60;;;6.70;;
12088;SDS011;6107;49.078;8.578;2024-03-22T05:34:59;10.35;;;6.38;;
12088;SDS011;6107;49.078;8.578;2024-03-22T05:37:25;17.45;;;8.05;;
12088;SDS011;6107;49.078;8.578;2024-03-22T05:39:50;13.77;;;6.93;;
12088;SDS011;6107;49.078;8.578;2024-03-22T05:42:16;13.50;;;7.47;;
12088;SDS011;6107;49.078;8.578;2024-03-22T05:44:43;15.77;;;7.47;;
12088;SDS011;6107;49.078;8.578;2024-03-22T05:47:09;12.68;;;7.25;;
12088;SDS011;6107;49.078;8.578;2024-03-22T05:49:35;16.27;;;7.63;;
12088;SDS011;6107;49.078;8.578;2024-03-22T05:52:00;14.32;;;7.38;;
12088;SDS011;6107;49.078;8.578;2024-03-22T05:54:26;12.05;;;7.22;;
12088;SDS011;6107;49.078;8.578;2024-03-22T05:56:52;21.70;;;7.35;;
12088;SDS011;6107;49.078;8.578;2024-03-22T05:59:17;13.10;;;7.43;;
12088;SDS011;6107;49.078;8.578;2024-03-22T06:01:43;14.75;;;7.50;;
12088;SDS011;6107;49.078;8.578;2024-03-22T06:04:08;13.88;;;8.00;;
12088;SDS011;6107;49.078;8.578;2024-03-22T06:06:37;19.52;;;7.22;;
12088;SDS011;6107;49.078;8.578;2024-03-22T06:09:03;14.40;;;7.15;;
12088;SDS011;6107;49.078;8.578;2024-03-22T06:11:32;13.32;;;7.63;;
12088;SDS011;6107;49.078;8.578;2024-03-22T06:13:57;9.82;;;6.40;;
12088;SDS011;6107;49.078;8.578;2024-03-22T06:16:23;17.55;;;8.35;;
12088;SDS011;6107;49.078;8.578;2024-03-22T06:18:49;19.00;;;8.85;;
12088;SDS011;6107;49.078;8.578;2024-03-22T06:21:14;37.85;;;14.80;;
12088;SDS011;6107;49.078;8.578;2024-03-22T06:23:40;61.63;;;22.42;;
12088;SDS011;6107;49.078;8.578;2024-03-22T06:26:06;93.57;;;28.05;;
12088;SDS011;6107;49.078;8.578;2024-03-22T06:28:33;27.65;;;12.07;;
12088;SDS011;6107;49.078;8.578;2024-03-22T06:30:59;16.40;;;9.02;;
12088;SDS011;6107;49.078;8.578;2024-03-22T06:33:25;24.90;;;12.52;;
12088;SDS011;6107;49.078;8.578;2024-03-22T06:35:54;27.55;;;13.07;;
12088;SDS011;6107;49.078;8.578;2024-03-22T06:38:21;28.77;;;13.52;;
12088;SDS011;6107;49.078;8.578;2024-03-22T06:40:49;43.75;;;20.30;;
12088;SDS011;6107;49.078;8.578;2024-03-22T06:43:17;25.63;;;12.77;;
12088;SDS011;6107;49.078;8.578;2024-03-22T06:45:45;19.35;;;11.20;;
12088;SDS011;6107;49.078;8.578;2024-03-22T06:48:11;14.27;;;7.97;;
12088;SDS011;6107;49.078;8.578;2024-03-22T06:50:40;14.50;;;8.73;;
12088;SDS011;6107;49.078;8.578;2024-03-22T06:53:09;18.33;;;9.57;;
12088;SDS011;6107;49.078;8.578;2024-03-22T06:55:35;17.90;;;9.60;;
12088;SDS011;6107;49.078;8.578;2024-03-22T06:58:01;16.10;;;8.43;;
12088;SDS011;6107;49.078;8.578;2024-03-22T07:00:27;12.98;;;8.50;;
12088;SDS011;6107;49.078;8.578;2024-03-22T07:02:52;17.92;;;9.05;;
12088;SDS011;6107;49.078;8.578;2024-03-22T07:05:18;19.30;;;8.80;;
12088;SDS011;6107;49.078;8.578;2024-03-22T07:07:43;15.20;;;8.38;;
12088;SDS011;6107;49.078;8.578;2024-03-22T07:10:09;13.50;;;7.43;;
12088;SDS011;6107;49.078;8.578;2024-03-22T07:12:35;15.48;;;7.70;;
12088;SDS011;6107;49.078;8.578;2024-03-22T07:15:01;15.50;;;7.88;;
12088;SDS011;6107;49.078;8.578;2024-03-22T07:17:27;15.25;;;7.90;;
12088;SDS011;6107;49.078;8.578;2024-03-22T07:19:54;12.25;;;7.90;;
12088;SDS011;6107;49.078;8.578;2024-03-22T07:22:21;14.57;;;8.95;;
12088;SDS011;6107;49.078;8.578;2024-03-22T07:24:46;14.18;;;8.45;;
12088;SDS011;6107;49.078;8.578;2024-03-22T07:27:13;19.27;;;7.80;;
12088;SDS011;6107;49.078;8.578;2024-03-22T07:29:40;18.52;;;10.52;;
12088;SDS011;6107;49.078;8.578;2024-03-22T07:32:06;13.98;;;8.60;;
12088;SDS011;6107;49.078;8.578;2024-03-22T07:34:31;12.52;;;8.18;;
12088;SDS011;6107;49.078;8.578;2024-03-22T07:36:57;14.93;;;8.15;;
12088;SDS011;6107;49.078;8.578;2024-03-22T07:39:23;14.50;;;7.50;;
12088;SDS011;6107;49.078;8.578;2024-03-22T07:41:49;15.50;;;7.50;;
12088;SDS011;6107;49.078;8.578;2024-03-22T07:44:15;12.00;;;6.53;;
12088;SDS011;6107;49.078;8.578;2024-03-22T07:46:43;13.77;;;6.18;;
12088;SDS011;6107;49.078;8.578;2024-03-22T07:49:09;12.95;;;6.32;;
12088;SDS011;6107;49.078;8.578;2024-03-22T07:51:35;12.85;;;6.75;;
12088;SDS011;6107;49.078;8.578;2024-03-22T07:54:00;14.27;;;6.22;;
12088;SDS011;6107;49.078;8.578;2024-03-22T07:56:27;11.45;;;6.60;;
12088;SDS011;6107;49.078;8.578;2024-03-22T07:58:53;13.10;;;6.68;;
12088;SDS011;6107;49.078;8.578;2024-03-22T08:01:18;11.18;;;6.97;;
12088;SDS011;6107;49.078;8.578;2024-03-22T08:03:44;14.20;;;7.25;;
12088;SDS011;6107;49.078;8.578;2024-03-22T08:06:10;17.27;;;6.25;;
12088;SDS011;6107;49.078;8.578;2024-03-22T08:08:35;13.63;;;5.70;;
12088;SDS011;6107;49.078;8.578;2024-03-22T08:11:01;15.25;;;6.72;;
12088;SDS011;6107;49.078;8.578;2024-03-22T08:13:26;10.38;;;6.38;;
12088;SDS011;6107;49.078;8.578;2024-03-22T08:15:52;16.77;;;6.75;;
12088;SDS011;6107;49.078;8.578;2024-03-22T08:18:18;10.52;;;6.28;;
12088;SDS011;6107;49.078;8.578;2024-03-22T08:20:45;12.35;;;6.72;;
12088;SDS011;6107;49.078;8.578;2024-03-22T08:23:11;16.08;;;6.80;;
12088;SDS011;6107;49.078;8.578;2024-03-22T08:25:37;11.20;;;6.88;;
12088;SDS011;6107;49.078;8.578;2024-03-22T08:28:03;13.90;;;7.18;;
12088;SDS011;6107;49.078;8.578;2024-03-22T08:30:29;12.60;;;7.32;;
12088;SDS011;6107;49.078;8.578;2024-03-22T08:32:55;9.38;;;5.90;;
12088;SDS011;6107;49.078;8.578;2024-03-22T08:35:21;11.57;;;6.50;;
12088;SDS011;6107;49.078;8.578;2024-03-22T08:37:47;14.65;;;7.15;;
12088;SDS011;6107;49.078;8.578;2024-03-22T08:40:13;13.00;;;5.93;;
12088;SDS011;6107;49.078;8.578;2024-03-22T08:42:40;11.70;;;6.35;;
12088;SDS011;6107;49.078;8.578;2024-03-22T08:45:07;9.27;;;5.97;;
12088;SDS011;6107;49.078;8.578;2024-03-22T08:47:33;12.50;;;6.40;;
12088;SDS011;6107;49.078;8.578;2024-03-22T08:49:59;9.38;;;5.35;;
12088;SDS011;6107;49.078;8.578;2024-03-22T08:52:25;13.93;;;5.88;;
12088;SDS011;6107;49.078;8.578;2024-03-22T08:54:52;10.70;;;6.03;;
12088;SDS011;6107;49.078;8.578;2024-03-22T08:57:18;9.45;;;6.03;;
12088;SDS011;6107;49.078;8.578;2024-03-22T08:59:45;9.43;;;5.50;;
12088;SDS011;6107;49.078;8.578;2024-03-22T09:02:11;9.40;;;5.30;;
12088;SDS011;6107;49.078;8.578;2024-03-22T09:04:37;9.52;;;5.50;;
12088;SDS011;6107;49.078;8.578;2024-03-22T09:07:04;12.05;;;5.57;;
12088;SDS011;6107;49.078;8.578;2024-03-22T09:09:30;14.23;;;6.32;;
12088;SDS011;6107;49.078;8.578;2024-03-22T09:11:56;11.18;;;6.00;;
12088;SDS011;6107;49.078;8.578;2024-03-22T09:14:22;11.48;;;5.93;;
12088;SDS011;6107;49.078;8.578;2024-03-22T09:16:48;15.93;;;6.10;;
12088;SDS011;6107;49.078;8.578;2024-03-22T09:19:14;8.65;;;6.18;;
12088;SDS011;6107;49.078;8.578;2024-03-22T09:21:40;12.02;;;6.80;;
12088;SDS011;6107;49.078;8.578;2024-03-22T09:24:06;12.00;;;6.20;;
12088;SDS011;6107;49.078;8.578;2024-03-22T09:26:32;10.52;;;5.78;;
12088;SDS011;6107;49.078;8.578;2024-03-22T09:28:58;9.07;;;5.45;;
12088;SDS011;6107;49.078;8.578;2024-03-22T09:31:24;11.10;;;5.75;;
12088;SDS011;6107;49.078;8.578;2024-03-22T09:33:51;11.63;;;5.70;;
12088;SDS011;6107;49.078;8.578;2024-03-22T09:36:17;11.90;;;5.22;;
12088;SDS011;6107;49.078;8.578;2024-03-22T09:38:43;10.93;;;6.00;;
12088;SDS011;6107;49.078;8.578;2024-03-22T09:41:09;11.77;;;6.10;;
12088;SDS011;6107;49.078;8.578;2024-03-22T09:43:38;10.18;;;5.82;;
12088;SDS011;6107;49.078;8.578;2024-03-22T09:46:04;14.57;;;6.43;;
12088;SDS011;6107;49.078;8.578;2024-03-22T09:48:30;13.27;;;5.82;;
12088;SDS011;6107;49.078;8.578;2024-03-22T09:50:57;11.73;;;6.22;;
12088;SDS011;6107;49.078;8.578;2024-03-22T09:53:23;13.07;;;6.05;;
12088;SDS011;6107;49.078;8.578;2024-03-22T09:55:51;10.07;;;5.90;;
12088;SDS011;6107;49.078;8.578;2024-03-22T09:58:22;15.20;;;6.28;;
12088;SDS011;6107;49.078;8.578;2024-03-22T10:00:48;15.23;;;6.47;;
12088;SDS011;6107;49.078;8.578;2024-03-22T10:03:14;19.02;;;6.97;;
12088;SDS011;6107;49.078;8.578;2024-03-22T10:05:40;9.68;;;6.18;;
12088;SDS011;6107;49.078;8.578;2024-03-22T10:08:06;15.52;;;6.03;;
12088;SDS011;6107;49.078;8.578;2024-03-22T10:10:32;12.15;;;6.32;;
12088;SDS011;6107;49.078;8.578;2024-03-22T10:13:01;12.52;;;6.05;;
12088;SDS011;6107;49.078;8.578;2024-03-22T10:15:28;12.40;;;6.40;;
12088;SDS011;6107;49.078;8.578;2024-03-22T10:17:56;10.90;;;5.88;;
12088;SDS011;6107;49.078;8.578;2024-03-22T10:20:24;11.93;;;5.78;;
12088;SDS011;6107;49.078;8.578;2024-03-22T10:22:56;15.40;;;5.57;;
12088;SDS011;6107;49.078;8.578;2024-03-22T10:25:25;11.27;;;5.60;;
12088;SDS011;6107;49.078;8.578;2024-03-22T10:27:55;12.93;;;6.32;;
12088;SDS011;6107;49.078;8.578;2024-03-22T10:30:21;15.65;;;5.30;;
12088;SDS011;6107;49.078;8.578;2024-03-22T10:32:48;14.07;;;5.53;;
12088;SDS011;6107;49.078;8.578;2024-03-22T10:35:14;12.73;;;5.93;;
12088;SDS011;6107;49.078;8.578;2024-03-22T10:37:41;13.57;;;5.43;;
12088;SDS011;6107;49.078;8.578;2024-03-22T10:40:08;12.63;;;5.00;;
12088;SDS011;6107;49.078;8.578;2024-03-22T10:42:34;10.98;;;5.60;;
12088;SDS011;6107;49.078;8.578;2024-03-22T10:45:04;11.82;;;5.80;;
12088;SDS011;6107;49.078;8.578;2024-03-22T10:47:31;15.50;;;5.53;;
12088;SDS011;6107;49.078;8.578;2024-03-22T10:55:27;12.15;;;5.50;;
12088;SDS011;6107;49.078;8.578;2024-03-22T10:58:02;12.27;;;5.70;;
12088;SDS011;6107;49.078;8.578;2024-03-22T11:00:32;15.00;;;5.72;;
12088;SDS011;6107;49.078;8.578;2024-03-22T11:03:01;10.98;;;5.38;;
12088;SDS011;6107;49.078;8.578;2024-03-22T11:05:27;13.57;;;5.47;;
12088;SDS011;6107;49.078;8.578;2024-03-22T11:08:00;11.30;;;5.32;;
12088;SDS011;6107;49.078;8.578;2024-03-22T11:10:28;10.48;;;6.15;;
12088;SDS011;6107;49.078;8.578;2024-03-22T11:12:55;10.02;;;5.25;;
12088;SDS011;6107;49.078;8.578;2024-03-22T11:15:21;11.48;;;5.15;;
12088;SDS011;6107;49.078;8.578;2024-03-22T11:17:47;13.25;;;5.63;;
12088;SDS011;6107;49.078;8.578;2024-03-22T11:20:14;8.15;;;4.40;;
12088;SDS011;6107;49.078;8.578;2024-03-22T11:22:41;11.18;;;5.15;;
12088;SDS011;6107;49.078;8.578;2024-03-22T11:25:07;8.50;;;4.60;;
12088;SDS011;6107;49.078;8.578;2024-03-22T11:27:33;9.32;;;4.72;;
12088;SDS011;6107;49.078;8.578;2024-03-22T11:29:58;10.30;;;4.10;;
12088;SDS011;6107;49.078;8.578;2024-03-22T11:32:24;10.80;;;4.65;;
12088;SDS011;6107;49.078;8.578;2024-03-22T11:34:50;10.23;;;5.13;;
12088;SDS011;6107;49.078;8.578;2024-03-22T11:37:16;13.38;;;4.35;;
12088;SDS011;6107;49.078;8.578;2024-03-22T11:39:41;11.52;;;4.07;;
12088;SDS011;6107;49.078;8.578;2024-03-22T11:42:08;9.52;;;4.30;;
12088;SDS011;6107;49.078;8.578;2024-03-22T11:44:36;10.60;;;4.95;;
12088;SDS011;6107;49.078;8.578;2024-03-22T11:47:04;10.95;;;4.53;;
12088;SDS011;6107;49.078;8.578;2024-03-22T11:49:30;7.93;;;3.58;;
12088;SDS011;6107;49.078;8.578;2024-03-22T11:51:56;10.63;;;3.97;;
12088;SDS011;6107;49.078;8.578;2024-03-22T11:54:22;6.38;;;3.60;;
12088;SDS011;6107;49.078;8.578;2024-03-22T11:56:48;9.65;;;4.07;;
12088;SDS011;6107;49.078;8.578;2024-03-22T11:59:20;8.60;;;3.65;;
12088;SDS011;6107;49.078;8.578;2024-03-22T12:01:46;12.60;;;4.22;;
12088;SDS011;6107;49.078;8.578;2024-03-22T12:04:12;7.40;;;4.25;;
12088;SDS011;6107;49.078;8.578;2024-03-22T12:06:43;8.05;;;3.90;;
12088;SDS011;6107;49.078;8.578;2024-03-22T12:09:10;9.27;;;3.70;;
12088;SDS011;6107;49.078;8.578;2024-03-22T12:11:37;9.38;;;3.72;;
12088;SDS011;6107;49.078;8.578;2024-03-22T12:14:04;7.18;;;3.60;;
12088;SDS011;6107;49.078;8.578;2024-03-22T12:16:31;6.15;;;3.50;;
12088;SDS011;6107;49.078;8.578;2024-03-22T12:18:57;9.57;;;3.80;;
12088;SDS011;6107;49.078;8.578;2024-03-22T12:21:24;5.55;;;3.63;;
12088;SDS011;6107;49.078;8.578;2024-03-22T12:23:50;5.85;;;3.38;;
12088;SDS011;6107;49.078;8.578;2024-03-22T12:26:16;6.43;;;3.53;;
12088;SDS011;6107;49.078;8.578;2024-03-22T12:28:41;6.07;;;3.92;;
12088;SDS011;6107;49.078;8.578;2024-03-22T12:31:08;6.70;;;3.65;;
12088;SDS011;6107;49.078;8.578;2024-03-22T12:33:35;8.57;;;4.28;;
12088;SDS011;6107;49.078;8.578;2024-03-22T12:36:01;9.30;;;3.90;;
12088;SDS011;6107;49.078;8.578;2024-03-22T12:38:28;7.07;;;3.67;;
12088;SDS011;6107;49.078;8.578;2024-03-22T12:40:53;9.50;;;4.28;;
12088;SDS011;6107;49.078;8.578;2024-03-22T12:43:19;7.25;;;3.80;;
12088;SDS011;6107;49.078;8.578;2024-03-22T12:45:45;11.88;;;3.42;;
12088;SDS011;6107;49.078;8.578;2024-03-22T12:48:11;7.47;;;3.58;;
12088;SDS011;6107;49.078;8.578;2024-03-22T12:50:38;7.82;;;4.10;;
12088;SDS011;6107;49.078;8.578;2024-03-22T12:53:04;6.90;;;3.90;;
12088;SDS011;6107;49.078;8.578;2024-03-22T12:55:31;8.05;;;4.10;;
12088;SDS011;6107;49.078;8.578;2024-03-22T12:57:58;6.43;;;3.88;;
12088;SDS011;6107;49.078;8.578;2024-03-22T13:00:25;7.93;;;3.65;;
12088;SDS011;6107;49.078;8.578;2024-03-22T13:02:52;6.57;;;3.58;;
12088;SDS011;6107;49.078;8.578;2024-03-22T13:05:18;8.35;;;3.90;;
12088;SDS011;6107;49.078;8.578;2024-03-22T13:07:45;5.38;;;3.67;;
12088;SDS011;6107;49.078;8.578;2024-03-22T13:10:11;7.78;;;3.55;;
12088;SDS011;6107;49.078;8.578;2024-03-22T13:12:38;5.93;;;3.00;;
12088;SDS011;6107;49.078;8.578;2024-03-22T13:15:04;5.90;;;3.40;;
12088;SDS011;6107;49.078;8.578;2024-03-22T13:17:31;4.82;;;3.03;;
12088;SDS011;6107;49.078;8.578;2024-03-22T13:19:58;9.13;;;2.85;;
12088;SDS011;6107;49.078;8.578;2024-03-22T13:22:25;7.28;;;2.55;;
12088;SDS011;6107;49.078;8.578;2024-03-22T13:24:52;4.70;;;2.53;;
12088;SDS011;6107;49.078;8.578;2024-03-22T13:27:20;4.72;;;2.00;;
12088;SDS011;6107;49.078;8.578;2024-03-22T13:29:51;6.50;;;2.45;;
12088;SDS011;6107;49.078;8.578;2024-03-22T13:32:18;6.03;;;2.17;;
12088;SDS011;6107;49.078;8.578;2024-03-22T13:34:47;4.35;;;2.70;;
12088;SDS011;6107;49.078;8.578;2024-03-22T13:37:16;7.75;;;2.80;;
12088;SDS011;6107;49.078;8.578;2024-03-22T13:39:48;8.02;;;2.60;;
12088;SDS011;6107;49.078;8.578;2024-03-22T13:42:18;4.57;;;2.20;;
12088;SDS011;6107;49.078;8.578;2024-03-22T13:44:47;7.40;;;2.03;;
12088;SDS011;6107;49.078;8.578;2024-03-22T13:47:13;5.05;;;2.30;;
12088;SDS011;6107;49.078;8.578;2024-03-22T13:49:39;7.38;;;2.10;;
12088;SDS011;6107;49.078;8.578;2024-03-22T13:52:09;9.70;;;2.35;;
12088;SDS011;6107;49.078;8.578;2024-03-22T13:54:35;4.78;;;2.20;;
12088;SDS011;6107;49.078;8.578;2024-03-22T13:57:00;7.10;;;2.20;;
12088;SDS011;6107;49.078;8.578;2024-03-22T13:59:28;3.67;;;2.08;;
12088;SDS011;6107;49.078;8.578;2024-03-22T14:01:54;5.53;;;2.40;;
12088;SDS011;6107;49.078;8.578;2024-03-22T14:04:21;3.33;;;1.75;;
12088;SDS011;6107;49.078;8.578;2024-03-22T14:06:47;4.55;;;2.50;;
12088;SDS011;6107;49.078;8.578;2024-03-22T14:09:13;4.05;;;2.05;;
12088;SDS011;6107;49.078;8.578;2024-03-22T14:11:39;4.13;;;2.10;;
12088;SDS011;6107;49.078;8.578;2024-03-22T14:14:04;5.43;;;2.10;;
12088;SDS011;6107;49.078;8.578;2024-03-22T14:16:30;4.88;;;2.45;;
12088;SDS011;6107;49.078;8.578;2024-03-22T14:18:56;5.05;;;2.40;;
12088;SDS011;6107;49.078;8.578;2024-03-22T14:21:22;5.75;;;2.65;;
12088;SDS011;6107;49.078;8.578;2024-03-22T14:23:50;10.77;;;2.50;;
12088;SDS011;6107;49.078;8.578;2024-03-22T14:26:17;8.48;;;3.13;;
12088;SDS011;6107;49.078;8.578;2024-03-22T14:28:43;7.60;;;2.75;;
12088;SDS011;6107;49.078;8.578;2024-03-22T14:31:12;4.75;;;2.30;;
12088;SDS011;6107;49.078;8.578;2024-03-22T14:33:38;8.55;;;2.80;;
12088;SDS011;6107;49.078;8.578;2024-03-22T14:36:04;4.65;;;2.67;;
12088;SDS011;6107;49.078;8.578;2024-03-22T14:38:31;6.35;;;2.72;;
12088;SDS011;6107;49.078;8.578;2024-03-22T14:40:57;4.45;;;2.13;;
12088;SDS011;6107;49.078;8.578;2024-03-22T14:43:23;4.97;;;3.03;;
12088;SDS011;6107;49.078;8.578;2024-03-22T14:45:49;4.47;;;2.40;;
12088;SDS011;6107;49.078;8.578;2024-03-22T14:48:22;10.48;;;3.22;;
12088;SDS011;6107;49.078;8.578;2024-03-22T14:50:49;7.05;;;2.90;;